Flight Track Log - Related Links

Times and Time Zones

All times are in EDT time to prevent confusion due to time zone crossing. See the CES2307 flight status page for this flight to view local times or setup timezone preferences in your user account.

Time Position Orientation Groundspeed Altitude Reporting Facility
EDT Latitude Longitude Course Direction KTS MPH feet Rate Location/Type
Mon 10:06:00 AM 32.3416 109.0676 173° South  Level Estimated
Mon 10:07:00 AM 32.2413 109.0823 173° South  Level Estimated
Mon 10:08:00 AM 32.1410 109.0969 173° South  Level Estimated
Mon 10:09:00 AM 32.0407 109.1115 173° South  Level Estimated
Mon 10:10:00 AM 31.9405 109.1261 173° South  Level Estimated
Mon 10:11:00 AM 31.8402 109.1407 173° South  Level Estimated
Mon 10:12:00 AM 31.7399 109.1552 173° South  Level Estimated
Mon 10:13:00 AM 31.6396 109.1697 173° South  Level Estimated
Mon 10:14:00 AM 31.5393 109.1841 173° South  Level Estimated
Mon 10:15:00 AM 31.4390 109.1985 173° South  Level Estimated
Mon 10:16:00 AM 31.3387 109.2129 173° South  Level Estimated
Mon 10:17:00 AM 31.2384 109.2273 173° South  Level Estimated
Mon 10:18:00 AM 31.1381 109.2416 173° South  Level Estimated
Mon 10:19:00 AM 31.0378 109.2559 173° South  Level Estimated
Mon 10:20:00 AM 30.9375 109.2702 173° South  Level Estimated
Mon 10:21:00 AM 30.8372 109.2844 173° South  Level Estimated
Mon 10:22:00 AM 30.7369 109.2986 173° South  Level Estimated
Mon 10:23:00 AM 30.6366 109.3128 173° South  Level Estimated
Mon 10:24:00 AM 30.5363 109.3270 173° South  Level Estimated
Mon 10:25:00 AM 30.4360 109.3411 173° South  Level Estimated
Mon 10:26:00 AM 30.3356 109.3552 173° South  Level Estimated
Mon 10:27:00 AM 30.2353 109.3692 173° South  Level Estimated
Mon 10:28:00 AM 30.1350 109.3833 173° South  Level Estimated
Mon 10:29:00 AM 30.0347 109.3973 173° South  Level Estimated
Mon 10:30:00 AM 29.9344 109.4113 173° South  Level Estimated
Mon 10:31:00 AM 29.8341 109.4252 173° South  Level Estimated
Mon 10:32:00 AM 29.7337 109.4391 173° South  Level Estimated
Mon 10:33:00 AM 29.6334 109.4530 173° South  Level Estimated
Mon 10:34:00 AM 29.5331 109.4669 173° South  Level Estimated
Mon 10:35:00 AM 29.4328 109.4807 173° South  Level Estimated
Mon 10:36:00 AM 29.3324 109.4945 173° South  Level Estimated
Mon 10:37:00 AM 29.2321 109.5083 173° South  Level Estimated
Mon 10:38:00 AM 29.1318 109.5221 173° South  Level Estimated
Mon 10:39:00 AM 29.0315 109.5358 173° South  Level Estimated
Mon 10:40:00 AM 28.9311 109.5495 173° South  Level Estimated
Mon 10:41:00 AM 28.8308 109.5632 173° South  Level Estimated
Mon 10:42:00 AM 28.7304 109.5768 173° South  Level Estimated
Mon 10:43:00 AM 28.6301 109.5905 173° South  Level Estimated
Mon 10:44:00 AM 28.5298 109.6041 173° South  Level Estimated
Mon 10:45:00 AM 28.4294 109.6176 173° South  Level Estimated
Mon 10:46:00 AM 28.3291 109.6312 173° South  Level Estimated
Mon 10:47:00 AM 28.2288 109.6447 173° South  Level Estimated
Mon 10:48:00 AM 28.1284 109.6582 173° South  Level Estimated
Mon 10:49:00 AM 28.0281 109.6717 173° South  Level Estimated
Mon 10:50:00 AM 27.9277 109.6851 173° South  Level Estimated
Mon 10:51:00 AM 27.8274 109.6985 173° South  Level Estimated
Mon 10:52:00 AM 27.7270 109.7120 173° South  Level Estimated
Mon 10:53:00 AM 27.6267 109.7253 173° South  Level Estimated
Mon 10:54:00 AM 27.5263 109.7387 173° South  Level Estimated
Mon 10:55:00 AM 27.4260 109.7520 173° South  Level Estimated
Mon 10:56:00 AM 27.3256 109.7653 173° South  Level Estimated
Mon 10:57:00 AM 27.2253 109.7786 173° South  Level Estimated
Mon 10:58:00 AM 27.1249 109.7918 173° South  Level Estimated
Mon 10:59:00 AM 27.0245 109.8050 173° South  Level Estimated
Mon 11:00:00 AM 26.9242 109.8182 173° South  Level Estimated
Mon 11:01:00 AM 26.8238 109.8314 173° South  Level Estimated
Mon 11:02:00 AM 26.7234 109.8446 173° South  Level Estimated
Mon 11:03:00 AM 26.6231 109.8577 173° South  Level Estimated
Mon 11:04:00 AM 26.5227 109.8708 173° South  Level Estimated
Mon 11:05:00 AM 26.4322 109.8826 173° South  Level Estimated
Mon 11:06:00 AM 26.3417 109.8944 173° South  Level Estimated
Mon 11:07:00 AM 26.2511 109.9062 173° South  Level Estimated
Mon 11:08:00 AM 26.1606 109.9179 173° South  Level Estimated
Mon 11:09:00 AM 26.0494 109.9324 173° South  Level Estimated
Mon 11:10:00 AM 25.9381 109.9467 173° South  Level Estimated
Mon 11:11:00 AM 25.8269 109.9611 173° South  Level Estimated
Mon 11:12:00 AM 25.7156 109.9754 173° South  Level Estimated
Mon 11:13:00 AM 25.6043 109.9897 173° South  Level Estimated
Mon 11:14:00 AM 25.4931 110.0040 173° South  Level Estimated
Mon 11:15:00 AM 25.3818 110.0183 173° South  Level Estimated
Mon 11:16:00 AM 25.2705 110.0325 173° South  Level Estimated
Mon 11:17:00 AM 25.2181 110.0392 173° South  Level Estimated
Mon 11:18:00 AM 25.2181 110.0392 214° Southwest  Level Estimated
Mon 11:19:00 AM 25.2181 110.0392 214° Southwest  Level Estimated
Mon 11:20:00 AM 25.2181 110.0392 214° Southwest  Level Estimated
Mon 11:21:00 AM 25.2181 110.0392 214° Southwest  Level Estimated
Mon 11:22:00 AM 25.2181 110.0392 214° Southwest  Level Estimated
Mon 11:23:00 AM 25.2181 110.0392 214° Southwest  Level Estimated
Mon 11:24:00 AM 25.2181 110.0392 214° Southwest  Level Estimated

Login

Don't have an account? Register now (free) for customized features, flight alerts, and more!